RYR15P EDHL-EGSS
Flight info
| Callsign | RYR15P |
|---|---|
| Flight time | 1h 16m |
| Altitude | 36000 |
| Route | HAM2A HAM L23 WSN N125 OMEPA DCT PARYD DCT NOGRO M40 RINIS |
| Aircraft | B738/M-SDE2E3FGHIRWXY/LB1 |
Departure
| Time | 2026-04-20 21:48 |
|---|---|
| Airport | Lübeck Blankensee Airport (EDHL) |
Arrival
| Time | 2026-04-20 23:05 |
|---|---|
| Airport | London Stansted Airport (EGSS) |
| Time | Latitude | Longitude | Altitude | Speed | Heading |
|---|---|---|---|---|---|
| 2026-04-20 21:24 | 53.80485 | 10.70284 | 59 ft | 0 kts | 324° |
| 2026-04-20 21:41 | 53.80484 | 10.70285 | 59 ft | 1 kts | 324° |
| 2026-04-20 21:41 | 53.80472 | 10.70299 | 59 ft | 2 kts | 324° |
| 2026-04-20 21:41 | 53.80460 | 10.70314 | 59 ft | 2 kts | 324° |
| 2026-04-20 21:42 | 53.80449 | 10.70327 | 59 ft | 0 kts | 324° |
| 2026-04-20 21:42 | 53.80440 | 10.70339 | 59 ft | 2 kts | 305° |
| 2026-04-20 21:42 | 53.80434 | 10.70362 | 59 ft | 2 kts | 278° |
| 2026-04-20 21:42 | 53.80435 | 10.70384 | 59 ft | 0 kts | 255° |
| 2026-04-20 21:43 | 53.80437 | 10.70394 | 59 ft | 1 kts | 251° |
| 2026-04-20 21:43 | 53.80438 | 10.70396 | 59 ft | 0 kts | 251° |
| 2026-04-20 21:45 | 53.80426 | 10.70338 | 59 ft | 11 kts | 252° |
| 2026-04-20 21:45 | 53.80395 | 10.70175 | 59 ft | 9 kts | 251° |
| 2026-04-20 21:46 | 53.80353 | 10.70124 | 59 ft | 7 kts | 179° |
| 2026-04-20 21:46 | 53.80304 | 10.70139 | 60 ft | 6 kts | 169° |
| 2026-04-20 21:46 | 53.80260 | 10.70153 | 60 ft | 8 kts | 169° |
| 2026-04-20 21:46 | 53.80211 | 10.70240 | 60 ft | 12 kts | 79° |
| 2026-04-20 21:47 | 53.80218 | 10.70284 | 60 ft | 0 kts | 71° |
| 2026-04-20 21:47 | 53.80240 | 10.70396 | 60 ft | 41 kts | 72° |
| 2026-04-20 21:47 | 53.80419 | 10.71327 | 58 ft | 122 kts | 72° |
| 2026-04-20 21:48 | 53.80738 | 10.73033 | 258 ft | 171 kts | 72° |
| 2026-04-20 21:48 | 53.81085 | 10.74884 | 1328 ft | 169 kts | 72° |
| 2026-04-20 21:48 | 53.81419 | 10.76597 | 2529 ft | 145 kts | 72° |
| 2026-04-20 21:48 | 53.81749 | 10.78286 | 2977 ft | 159 kts | 72° |
| 2026-04-20 21:49 | 53.82111 | 10.80155 | 3420 ft | 175 kts | 72° |
| 2026-04-20 21:49 | 53.82500 | 10.82186 | 3844 ft | 194 kts | 72° |
| 2026-04-20 21:49 | 53.82936 | 10.84461 | 4398 ft | 208 kts | 72° |
| 2026-04-20 21:49 | 53.83381 | 10.86800 | 5093 ft | 214 kts | 73° |
| 2026-04-20 21:50 | 53.83492 | 10.89317 | 5782 ft | 223 kts | 99° |
| 2026-04-20 21:50 | 53.82809 | 10.91707 | 6506 ft | 236 kts | 124° |
| 2026-04-20 21:50 | 53.81562 | 10.93521 | 7240 ft | 247 kts | 143° |
| 2026-04-20 21:50 | 53.79905 | 10.94503 | 7929 ft | 263 kts | 171° |
| 2026-04-20 21:51 | 53.78096 | 10.93939 | 8605 ft | 278 kts | 204° |
| 2026-04-20 21:51 | 53.76613 | 10.91807 | 9284 ft | 286 kts | 232° |
| 2026-04-20 21:51 | 53.75609 | 10.88873 | 9944 ft | 290 kts | 253° |
| 2026-04-20 21:51 | 53.75188 | 10.85508 | 10401 ft | 301 kts | 264° |
| 2026-04-20 21:52 | 53.74933 | 10.81952 | 10777 ft | 316 kts | 265° |
| 2026-04-20 21:52 | 53.74647 | 10.78206 | 11179 ft | 330 kts | 264° |
| 2026-04-20 21:52 | 53.74292 | 10.74242 | 11569 ft | 345 kts | 263° |
| 2026-04-20 21:52 | 53.73893 | 10.70217 | 12009 ft | 359 kts | 262° |
| 2026-04-20 21:53 | 53.73455 | 10.66015 | 12602 ft | 366 kts | 262° |
| 2026-04-20 21:53 | 53.73002 | 10.61775 | 13302 ft | 371 kts | 262° |
| 2026-04-20 21:53 | 53.72541 | 10.57476 | 14078 ft | 374 kts | 262° |
| 2026-04-20 21:53 | 53.72075 | 10.53135 | 14815 ft | 378 kts | 262° |
| 2026-04-20 21:54 | 53.71613 | 10.48832 | 15529 ft | 381 kts | 262° |
| 2026-04-20 21:54 | 53.71138 | 10.44399 | 16243 ft | 386 kts | 262° |
| 2026-04-20 21:54 | 53.70659 | 10.39929 | 16961 ft | 389 kts | 262° |
| 2026-04-20 21:54 | 53.70176 | 10.35447 | 17648 ft | 392 kts | 262° |
| 2026-04-20 21:55 | 53.69690 | 10.30941 | 18307 ft | 396 kts | 261° |
| 2026-04-20 21:55 | 53.69190 | 10.26342 | 18967 ft | 399 kts | 261° |
| 2026-04-20 21:55 | 53.68613 | 10.21768 | 19600 ft | 403 kts | 257° |
| 2026-04-20 21:55 | 53.67803 | 10.17238 | 20258 ft | 406 kts | 251° |
| 2026-04-20 21:56 | 53.66803 | 10.12757 | 20892 ft | 410 kts | 249° |
| 2026-04-20 21:56 | 53.65704 | 10.08289 | 21515 ft | 413 kts | 247° |
| 2026-04-20 21:56 | 53.64574 | 10.03860 | 22100 ft | 417 kts | 247° |
| 2026-04-20 21:56 | 53.63415 | 9.99358 | 22715 ft | 420 kts | 247° |
| 2026-04-20 21:57 | 53.62259 | 9.94860 | 23271 ft | 423 kts | 247° |
| 2026-04-20 21:57 | 53.61090 | 9.90286 | 23839 ft | 426 kts | 247° |
| 2026-04-20 21:57 | 53.59929 | 9.85720 | 24397 ft | 429 kts | 248° |
| 2026-04-20 21:57 | 53.58756 | 9.81090 | 24941 ft | 432 kts | 248° |
| 2026-04-20 21:58 | 53.57574 | 9.76417 | 25449 ft | 435 kts | 248° |
| 2026-04-20 21:58 | 53.56386 | 9.71717 | 25968 ft | 437 kts | 248° |
| 2026-04-20 21:58 | 53.55188 | 9.66981 | 26464 ft | 440 kts | 248° |
| 2026-04-20 21:58 | 53.53975 | 9.62186 | 26941 ft | 443 kts | 248° |
| 2026-04-20 21:59 | 53.52768 | 9.57427 | 27419 ft | 446 kts | 248° |
| 2026-04-20 21:59 | 53.51551 | 9.52643 | 27885 ft | 448 kts | 248° |
| 2026-04-20 21:59 | 53.50318 | 9.47813 | 28308 ft | 451 kts | 248° |
| 2026-04-20 21:59 | 53.49068 | 9.42930 | 28743 ft | 453 kts | 248° |
| 2026-04-20 22:00 | 53.47840 | 9.38124 | 29194 ft | 455 kts | 248° |
| 2026-04-20 22:00 | 53.46598 | 9.33201 | 29558 ft | 458 kts | 247° |
| 2026-04-20 22:00 | 53.45329 | 9.28228 | 29995 ft | 460 kts | 247° |
| 2026-04-20 22:00 | 53.44063 | 9.23318 | 30359 ft | 463 kts | 247° |
| 2026-04-20 22:01 | 53.42774 | 9.18351 | 30799 ft | 464 kts | 247° |
| 2026-04-20 22:01 | 53.41507 | 9.13483 | 31378 ft | 460 kts | 247° |
| 2026-04-20 22:01 | 53.40223 | 9.08557 | 31890 ft | 457 kts | 247° |
| 2026-04-20 22:01 | 53.38968 | 9.03754 | 32325 ft | 455 kts | 247° |
| 2026-04-20 22:02 | 53.37696 | 8.98888 | 32709 ft | 453 kts | 247° |
| 2026-04-20 22:02 | 53.36438 | 8.94077 | 32998 ft | 453 kts | 247° |
| 2026-04-20 22:02 | 53.35176 | 8.89263 | 33285 ft | 452 kts | 247° |
| 2026-04-20 22:02 | 53.33942 | 8.84456 | 33587 ft | 451 kts | 248° |
| 2026-04-20 22:03 | 53.32798 | 8.79593 | 33903 ft | 449 kts | 250° |
| 2026-04-20 22:03 | 53.31723 | 8.74742 | 34197 ft | 448 kts | 251° |
| 2026-04-20 22:03 | 53.30671 | 8.69871 | 34495 ft | 446 kts | 251° |
| 2026-04-20 22:03 | 53.29632 | 8.65041 | 34772 ft | 445 kts | 251° |
| 2026-04-20 22:04 | 53.28582 | 8.60145 | 35056 ft | 444 kts | 251° |
| 2026-04-20 22:04 | 53.27546 | 8.55314 | 35307 ft | 444 kts | 251° |
| 2026-04-20 22:04 | 53.26510 | 8.50500 | 35551 ft | 444 kts | 251° |
| 2026-04-20 22:04 | 53.25499 | 8.45676 | 35810 ft | 443 kts | 253° |
| 2026-04-20 22:05 | 53.24544 | 8.40820 | 36079 ft | 442 kts | 253° |
| 2026-04-20 22:05 | 53.23616 | 8.35950 | 36254 ft | 442 kts | 254° |
| 2026-04-20 22:05 | 53.22689 | 8.31031 | 36271 ft | 445 kts | 253° |
| 2026-04-20 22:06 | 53.20837 | 8.21270 | 36265 ft | 440 kts | 253° |
| 2026-04-20 22:06 | 53.18971 | 8.11575 | 36270 ft | 441 kts | 253° |
| 2026-04-20 22:07 | 53.17077 | 8.01865 | 36264 ft | 441 kts | 253° |
| 2026-04-20 22:07 | 53.15176 | 7.92219 | 36263 ft | 441 kts | 253° |
| 2026-04-20 22:08 | 53.13256 | 7.82545 | 36252 ft | 440 kts | 253° |
| 2026-04-20 22:08 | 53.11334 | 7.72909 | 36253 ft | 440 kts | 253° |
| 2026-04-20 22:09 | 53.09396 | 7.63243 | 36257 ft | 440 kts | 253° |
| 2026-04-20 22:09 | 53.07451 | 7.53587 | 36254 ft | 439 kts | 253° |
| 2026-04-20 22:10 | 53.05517 | 7.44039 | 36257 ft | 439 kts | 253° |
| 2026-04-20 22:10 | 53.03536 | 7.34396 | 36259 ft | 440 kts | 251° |
| 2026-04-20 22:11 | 53.01367 | 7.24904 | 36255 ft | 440 kts | 249° |
| 2026-04-20 22:11 | 52.99116 | 7.15477 | 36250 ft | 440 kts | 249° |
| 2026-04-20 22:12 | 52.96876 | 7.06115 | 36255 ft | 440 kts | 249° |
| 2026-04-20 22:12 | 52.94629 | 6.96696 | 36251 ft | 439 kts | 249° |
| 2026-04-20 22:13 | 52.92396 | 6.87327 | 36247 ft | 438 kts | 250° |
| 2026-04-20 22:13 | 52.90157 | 6.77951 | 36248 ft | 438 kts | 250° |
| 2026-04-20 22:14 | 52.87930 | 6.68655 | 36252 ft | 438 kts | 250° |
| 2026-04-20 22:14 | 52.85671 | 6.59262 | 36249 ft | 438 kts | 250° |
| 2026-04-20 22:15 | 52.83437 | 6.50014 | 36249 ft | 438 kts | 250° |
| 2026-04-20 22:15 | 52.81178 | 6.40708 | 36241 ft | 437 kts | 250° |
| 2026-04-20 22:16 | 52.78919 | 6.31433 | 36249 ft | 438 kts | 249° |
| 2026-04-20 22:16 | 52.76697 | 6.22351 | 36248 ft | 437 kts | 249° |
| 2026-04-20 22:17 | 52.74425 | 6.13104 | 36254 ft | 437 kts | 249° |
| 2026-04-20 22:17 | 52.72141 | 6.03846 | 36264 ft | 437 kts | 249° |
| 2026-04-20 22:18 | 52.69844 | 5.94576 | 36275 ft | 437 kts | 249° |
| 2026-04-20 22:18 | 52.67551 | 5.85359 | 36274 ft | 437 kts | 249° |
| 2026-04-20 22:19 | 52.65246 | 5.76130 | 36262 ft | 436 kts | 249° |
| 2026-04-20 22:19 | 52.62940 | 5.66940 | 36260 ft | 436 kts | 249° |
| 2026-04-20 22:20 | 52.60631 | 5.57778 | 36246 ft | 436 kts | 249° |
| 2026-04-20 22:20 | 52.58300 | 5.48562 | 36243 ft | 435 kts | 249° |
| 2026-04-20 22:21 | 52.55970 | 5.39390 | 36237 ft | 435 kts | 249° |
| 2026-04-20 22:21 | 52.53645 | 5.30278 | 36245 ft | 436 kts | 249° |
| 2026-04-20 22:22 | 52.51299 | 5.21116 | 36240 ft | 435 kts | 249° |
| 2026-04-20 22:22 | 52.48950 | 5.11987 | 36232 ft | 434 kts | 249° |
| 2026-04-20 22:23 | 52.46594 | 5.02860 | 36241 ft | 435 kts | 249° |
| 2026-04-20 22:23 | 52.44237 | 4.93770 | 36237 ft | 434 kts | 249° |
| 2026-04-20 22:24 | 52.41872 | 4.84682 | 36245 ft | 434 kts | 249° |
| 2026-04-20 22:24 | 52.39514 | 4.75661 | 36242 ft | 433 kts | 249° |
| 2026-04-20 22:25 | 52.37143 | 4.66622 | 36245 ft | 434 kts | 249° |
| 2026-04-20 22:25 | 52.34766 | 4.57601 | 36241 ft | 433 kts | 249° |
| 2026-04-20 22:26 | 52.32372 | 4.48550 | 36242 ft | 432 kts | 249° |
| 2026-04-20 22:26 | 52.29998 | 4.39606 | 36248 ft | 432 kts | 249° |
| 2026-04-20 22:27 | 52.26405 | 4.26143 | 36248 ft | 432 kts | 248° |
| 2026-04-20 22:27 | 52.24020 | 4.17252 | 36246 ft | 430 kts | 248° |
| 2026-04-20 22:28 | 52.21613 | 4.08311 | 36245 ft | 431 kts | 248° |
| 2026-04-20 22:28 | 52.19215 | 3.99437 | 36252 ft | 430 kts | 248° |
| 2026-04-20 22:29 | 52.16808 | 3.90565 | 36247 ft | 430 kts | 248° |
| 2026-04-20 22:29 | 52.14400 | 3.81721 | 36249 ft | 429 kts | 248° |
| 2026-04-20 22:30 | 52.11985 | 3.72887 | 36248 ft | 428 kts | 249° |
| 2026-04-20 22:30 | 52.09549 | 3.64012 | 36251 ft | 428 kts | 249° |
| 2026-04-20 22:31 | 52.07132 | 3.55238 | 36247 ft | 427 kts | 249° |
| 2026-04-20 22:31 | 52.04701 | 3.46448 | 36208 ft | 426 kts | 249° |
| 2026-04-20 22:32 | 52.03502 | 3.42124 | 35878 ft | 422 kts | 249° |
| 2026-04-20 22:32 | 52.02293 | 3.37777 | 35344 ft | 422 kts | 249° |
| 2026-04-20 22:32 | 52.01111 | 3.33529 | 34731 ft | 424 kts | 248° |
| 2026-04-20 22:32 | 51.99891 | 3.29151 | 34203 ft | 423 kts | 248° |
| 2026-04-20 22:33 | 51.98685 | 3.24836 | 33725 ft | 421 kts | 249° |
| 2026-04-20 22:33 | 51.97570 | 3.20528 | 33253 ft | 418 kts | 252° |
| 2026-04-20 22:33 | 51.96685 | 3.16027 | 32774 ft | 415 kts | 258° |
| 2026-04-20 22:33 | 51.96115 | 3.11496 | 32287 ft | 414 kts | 263° |
| 2026-04-20 22:34 | 51.95723 | 3.06898 | 31768 ft | 413 kts | 266° |
| 2026-04-20 22:34 | 51.95422 | 3.02337 | 31196 ft | 412 kts | 267° |
| 2026-04-20 22:34 | 51.95152 | 2.97747 | 30630 ft | 405 kts | 267° |
| 2026-04-20 22:34 | 51.94893 | 2.93285 | 30135 ft | 390 kts | 267° |
| 2026-04-20 22:35 | 51.94640 | 2.89029 | 29664 ft | 377 kts | 267° |
| 2026-04-20 22:35 | 51.94387 | 2.84853 | 29200 ft | 370 kts | 267° |
| 2026-04-20 22:35 | 51.94128 | 2.80664 | 28737 ft | 385 kts | 267° |
| 2026-04-20 22:35 | 51.93854 | 2.76318 | 28233 ft | 390 kts | 266° |
| 2026-04-20 22:36 | 51.93573 | 2.72010 | 27737 ft | 388 kts | 266° |
| 2026-04-20 22:36 | 51.93287 | 2.67711 | 27251 ft | 385 kts | 266° |
| 2026-04-20 22:36 | 51.92995 | 2.63406 | 26770 ft | 382 kts | 266° |
| 2026-04-20 22:36 | 51.92706 | 2.59193 | 26267 ft | 374 kts | 266° |
| 2026-04-20 22:37 | 51.92420 | 2.55087 | 25856 ft | 367 kts | 266° |
| 2026-04-20 22:37 | 51.92134 | 2.50977 | 25357 ft | 365 kts | 266° |
| 2026-04-20 22:37 | 51.91854 | 2.46953 | 24914 ft | 362 kts | 266° |
| 2026-04-20 22:37 | 51.91571 | 2.42897 | 24431 ft | 360 kts | 266° |
| 2026-04-20 22:38 | 51.91289 | 2.38891 | 23963 ft | 357 kts | 267° |
| 2026-04-20 22:38 | 51.91012 | 2.34958 | 23516 ft | 354 kts | 266° |
| 2026-04-20 22:38 | 51.90757 | 2.31210 | 23084 ft | 350 kts | 267° |
| 2026-04-20 22:38 | 51.90595 | 2.27389 | 22649 ft | 346 kts | 270° |
| 2026-04-20 22:39 | 51.90509 | 2.23483 | 22209 ft | 342 kts | 271° |
| 2026-04-20 22:39 | 51.90449 | 2.19627 | 21761 ft | 339 kts | 271° |
| 2026-04-20 22:39 | 51.90389 | 2.15887 | 21338 ft | 336 kts | 271° |
| 2026-04-20 22:39 | 51.90321 | 2.12095 | 20905 ft | 332 kts | 271° |
| 2026-04-20 22:40 | 51.90246 | 2.08418 | 20486 ft | 332 kts | 271° |
| 2026-04-20 22:40 | 51.90165 | 2.04678 | 20057 ft | 334 kts | 271° |
| 2026-04-20 22:40 | 51.90079 | 2.00930 | 19623 ft | 334 kts | 271° |
| 2026-04-20 22:40 | 51.89989 | 1.97190 | 19203 ft | 330 kts | 271° |
| 2026-04-20 22:41 | 51.89901 | 1.93522 | 18778 ft | 326 kts | 272° |
| 2026-04-20 22:41 | 51.89975 | 1.89913 | 18353 ft | 319 kts | 281° |
| 2026-04-20 22:41 | 51.90514 | 1.86483 | 18265 ft | 315 kts | 295° |
| 2026-04-20 22:41 | 51.91442 | 1.83232 | 18261 ft | 319 kts | 300° |
| 2026-04-20 22:42 | 51.92467 | 1.80118 | 18259 ft | 318 kts | 301° |
| 2026-04-20 22:42 | 51.93538 | 1.76985 | 18259 ft | 318 kts | 302° |
| 2026-04-20 22:42 | 51.94603 | 1.73860 | 18231 ft | 318 kts | 302° |
| 2026-04-20 22:42 | 51.95650 | 1.70748 | 17910 ft | 314 kts | 301° |
| 2026-04-20 22:43 | 51.96685 | 1.67627 | 17503 ft | 310 kts | 301° |
| 2026-04-20 22:43 | 51.97695 | 1.64561 | 17118 ft | 311 kts | 301° |
| 2026-04-20 22:43 | 51.98706 | 1.61480 | 16702 ft | 313 kts | 301° |
| 2026-04-20 22:43 | 51.99723 | 1.58379 | 16303 ft | 309 kts | 301° |
| 2026-04-20 22:44 | 52.00703 | 1.55355 | 15900 ft | 305 kts | 301° |
| 2026-04-20 22:44 | 52.01704 | 1.52282 | 15504 ft | 310 kts | 301° |
| 2026-04-20 22:44 | 52.02714 | 1.49205 | 15104 ft | 312 kts | 301° |
| 2026-04-20 22:44 | 52.03741 | 1.46075 | 14678 ft | 308 kts | 301° |
| 2026-04-20 22:45 | 52.04736 | 1.43031 | 14284 ft | 304 kts | 302° |
| 2026-04-20 22:45 | 52.05711 | 1.40035 | 13915 ft | 301 kts | 301° |
| 2026-04-20 22:45 | 52.06684 | 1.37035 | 13515 ft | 302 kts | 302° |
| 2026-04-20 22:45 | 52.07674 | 1.33983 | 13115 ft | 303 kts | 301° |
| 2026-04-20 22:46 | 52.08643 | 1.30990 | 12713 ft | 299 kts | 301° |
| 2026-04-20 22:46 | 52.09580 | 1.28081 | 12532 ft | 291 kts | 301° |
| 2026-04-20 22:46 | 52.10543 | 1.25103 | 12451 ft | 301 kts | 301° |
| 2026-04-20 22:46 | 52.11380 | 1.22011 | 12337 ft | 302 kts | 290° |
| 2026-04-20 22:47 | 52.11581 | 1.18619 | 12269 ft | 304 kts | 264° |
| 2026-04-20 22:47 | 52.11118 | 1.15271 | 12271 ft | 308 kts | 256° |
| 2026-04-20 22:47 | 52.10493 | 1.11913 | 12253 ft | 307 kts | 255° |
| 2026-04-20 22:47 | 52.09868 | 1.08605 | 12285 ft | 307 kts | 255° |
| 2026-04-20 22:48 | 52.09271 | 1.05290 | 12282 ft | 307 kts | 256° |
| 2026-04-20 22:48 | 52.08700 | 1.01975 | 12269 ft | 307 kts | 257° |
| 2026-04-20 22:48 | 52.08133 | 0.98603 | 12235 ft | 305 kts | 257° |
| 2026-04-20 22:48 | 52.07574 | 0.95249 | 11902 ft | 311 kts | 257° |
| 2026-04-20 22:49 | 52.07014 | 0.91892 | 11390 ft | 312 kts | 257° |
| 2026-04-20 22:49 | 52.06443 | 0.88477 | 10971 ft | 309 kts | 257° |
| 2026-04-20 22:49 | 52.05884 | 0.85155 | 10588 ft | 307 kts | 257° |
| 2026-04-20 22:49 | 52.05327 | 0.81853 | 10249 ft | 302 kts | 257° |
| 2026-04-20 22:50 | 52.04780 | 0.78628 | 10077 ft | 292 kts | 257° |
| 2026-04-20 22:50 | 52.04241 | 0.75450 | 9628 ft | 293 kts | 257° |
| 2026-04-20 22:50 | 52.03703 | 0.72269 | 9265 ft | 291 kts | 257° |
| 2026-04-20 22:50 | 52.03169 | 0.69114 | 8894 ft | 289 kts | 257° |
| 2026-04-20 22:51 | 52.02638 | 0.65991 | 8540 ft | 286 kts | 257° |
| 2026-04-20 22:51 | 52.02118 | 0.62949 | 8361 ft | 277 kts | 257° |
| 2026-04-20 22:51 | 52.01651 | 0.59986 | 8270 ft | 264 kts | 263° |
| 2026-04-20 22:51 | 52.01407 | 0.57097 | 8076 ft | 256 kts | 268° |
| 2026-04-20 22:52 | 52.01266 | 0.54251 | 7745 ft | 255 kts | 269° |
| 2026-04-20 22:52 | 52.01146 | 0.51381 | 7407 ft | 254 kts | 270° |
| 2026-04-20 22:52 | 52.01014 | 0.48482 | 6873 ft | 262 kts | 269° |
| 2026-04-20 22:52 | 52.00868 | 0.45516 | 6340 ft | 267 kts | 269° |
| 2026-04-20 22:53 | 52.00718 | 0.42591 | 6299 ft | 254 kts | 269° |
| 2026-04-20 22:53 | 52.00584 | 0.39744 | 6274 ft | 252 kts | 269° |
| 2026-04-20 22:53 | 52.00461 | 0.36916 | 6273 ft | 249 kts | 270° |
| 2026-04-20 22:53 | 52.00347 | 0.34124 | 6287 ft | 251 kts | 269° |
| 2026-04-20 22:54 | 52.00234 | 0.31353 | 6282 ft | 250 kts | 269° |
| 2026-04-20 22:54 | 52.00081 | 0.28555 | 6290 ft | 252 kts | 263° |
| 2026-04-20 22:54 | 51.99483 | 0.25931 | 6291 ft | 256 kts | 234° |
| 2026-04-20 22:54 | 51.98220 | 0.23875 | 6293 ft | 257 kts | 218° |
| 2026-04-20 22:55 | 51.96813 | 0.22091 | 6277 ft | 257 kts | 218° |
| 2026-04-20 22:55 | 51.95441 | 0.20244 | 6037 ft | 261 kts | 221° |
| 2026-04-20 22:55 | 51.94064 | 0.18234 | 5535 ft | 267 kts | 223° |
| 2026-04-20 22:55 | 51.92723 | 0.16197 | 5141 ft | 268 kts | 223° |
| 2026-04-20 22:56 | 51.91351 | 0.14100 | 4738 ft | 269 kts | 223° |
| 2026-04-20 22:56 | 51.89992 | 0.12024 | 4254 ft | 273 kts | 223° |
| 2026-04-20 22:56 | 51.88636 | 0.09960 | 3687 ft | 271 kts | 223° |
| 2026-04-20 22:56 | 51.87281 | 0.07905 | 3302 ft | 262 kts | 222° |
| 2026-04-20 22:57 | 51.85984 | 0.05938 | 2969 ft | 252 kts | 222° |
| 2026-04-20 22:57 | 51.84727 | 0.04032 | 2996 ft | 247 kts | 222° |
| 2026-04-20 22:57 | 51.83482 | 0.02143 | 2946 ft | 247 kts | 223° |
| 2026-04-20 22:57 | 51.82215 | 0.00237 | 2965 ft | 246 kts | 222° |
| 2026-04-20 22:58 | 51.80973 | -0.01634 | 2957 ft | 246 kts | 223° |
| 2026-04-20 22:58 | 51.79637 | -0.03247 | 2958 ft | 244 kts | 201° |
| 2026-04-20 22:58 | 51.77981 | -0.03652 | 2958 ft | 237 kts | 167° |
| 2026-04-20 22:58 | 51.76490 | -0.02776 | 2962 ft | 225 kts | 143° |
| 2026-04-20 22:59 | 51.75292 | -0.01230 | 2966 ft | 211 kts | 130° |
| 2026-04-20 22:59 | 51.74444 | 0.00544 | 2921 ft | 191 kts | 109° |
| 2026-04-20 22:59 | 51.74156 | 0.02518 | 2863 ft | 171 kts | 88° |
| 2026-04-20 22:59 | 51.74203 | 0.04350 | 2811 ft | 156 kts | 78° |
| 2026-04-20 23:00 | 51.74456 | 0.06006 | 2761 ft | 147 kts | 64° |
| 2026-04-20 23:00 | 51.74984 | 0.07397 | 2721 ft | 147 kts | 47° |
| 2026-04-20 23:00 | 51.75740 | 0.08535 | 2687 ft | 150 kts | 40° |
| 2026-04-20 23:00 | 51.76590 | 0.09471 | 2628 ft | 149 kts | 26° |
| 2026-04-20 23:01 | 51.77635 | 0.09628 | 2592 ft | 154 kts | 0° |
| 2026-04-20 23:01 | 51.78688 | 0.09711 | 2534 ft | 151 kts | 19° |
| 2026-04-20 23:01 | 51.79654 | 0.10361 | 2470 ft | 149 kts | 32° |
| 2026-04-20 23:01 | 51.80467 | 0.11326 | 2444 ft | 144 kts | 43° |
| 2026-04-20 23:02 | 51.81140 | 0.12463 | 2158 ft | 139 kts | 46° |
| 2026-04-20 23:02 | 51.81829 | 0.13461 | 2017 ft | 124 kts | 42° |
| 2026-04-20 23:02 | 51.82461 | 0.14472 | 1841 ft | 130 kts | 46° |
| 2026-04-20 23:02 | 51.83122 | 0.15443 | 1613 ft | 124 kts | 40° |
| 2026-04-20 23:03 | 51.83762 | 0.16387 | 1475 ft | 125 kts | 47° |
| 2026-04-20 23:03 | 51.84390 | 0.17393 | 1275 ft | 127 kts | 41° |
| 2026-04-20 23:03 | 51.85085 | 0.18303 | 1095 ft | 129 kts | 45° |
| 2026-04-20 23:03 | 51.85695 | 0.19360 | 923 ft | 132 kts | 42° |
| 2026-04-20 23:04 | 51.86414 | 0.20254 | 738 ft | 130 kts | 40° |
| 2026-04-20 23:04 | 51.87004 | 0.21366 | 555 ft | 131 kts | 52° |
| 2026-04-20 23:04 | 51.87692 | 0.22302 | 357 ft | 131 kts | 33° |
| 2026-04-20 23:04 | 51.88262 | 0.23117 | 344 ft | 74 kts | 42° |
| 2026-04-20 23:05 | 51.88528 | 0.23519 | 343 ft | 40 kts | 42° |
| 2026-04-20 23:05 | 51.88653 | 0.23709 | 342 ft | 15 kts | 43° |
| 2026-04-20 23:05 | 51.88775 | 0.23897 | 341 ft | 33 kts | 46° |